Time;durP1;ratioP1;P1;durP2;ratioP2;P2;SDS_P1;SDS_P2;PMS_P1;PMS_P2;Temp;Humidity;BMP_temperature;BMP_pressure;BME280_temperature;BME280_humidity;BME280_pressure;Samples;Min_cycle;Max_cycle;Signal;HPM_P1;HPM_P2
2023/07/13 00:00:28;;;;;;;;;1.67;1.00;;;;;23.19;40.49;101204.94;5054003;28;45598;-57
2023/07/13 00:02:53;;;;;;;;;2.00;2.00;;;;;23.06;40.38;101186.97;5054442;28;45447;-58
2023/07/13 00:05:20;;;;;;;;;0.33;0.33;;;;;23.18;40.34;101201.31;5054402;28;45463;-58
2023/07/13 00:07:46;;;;;;;;;1.67;1.67;;;;;23.17;40.40;101209.53;5054730;28;45427;-61
2023/07/13 00:10:11;;;;;;;;;1.00;1.00;;;;;22.96;40.08;101164.44;5054739;28;45553;-58
2023/07/13 00:12:38;;;;;;;;;2.00;1.00;;;;;23.16;40.22;101208.63;5055214;28;45369;-58
2023/07/13 00:15:24;;;;;;;;;2.00;1.00;;;;;23.16;40.21;101208.63;5053845;28;45536;-58
2023/07/13 00:17:54;;;;;;;;;1.00;1.00;;;;;23.16;40.51;101213.16;5054067;28;45792;-58
2023/07/13 00:20:24;;;;;;;;;0.67;0.67;;;;;23.11;40.38;101217.81;5052033;28;45467;-58
2023/07/13 00:22:53;;;;;;;;;3.00;1.33;;;;;23.09;40.37;101215.13;5054717;28;45500;-60
2023/07/13 00:25:19;;;;;;;;;3.00;1.67;;;;;22.96;40.63;101187.13;5054702;28;45404;-57
2023/07/13 00:27:48;;;;;;;;;2.67;2.00;;;;;23.05;40.74;101212.44;5054581;28;45495;-60
2023/07/13 00:30:14;;;;;;;;;2.33;1.00;;;;;22.98;40.88;101195.28;5054225;28;45469;-61
2023/07/13 00:32:39;;;;;;;;;3.67;1.67;;;;;23.10;40.57;101213.28;5053247;28;45452;-59
2023/07/13 00:35:05;;;;;;;;;0.67;0.33;;;;;23.14;40.63;101215.03;5050812;28;48118;-59
2023/07/13 00:37:31;;;;;;;;;3.00;1.00;;;;;23.11;40.61;101210.53;5053198;28;45711;-59
2023/07/13 00:39:57;;;;;;;;;1.33;1.00;;;;;23.09;40.64;101209.66;5054585;28;45555;-59
2023/07/13 00:42:22;;;;;;;;;2.33;1.00;;;;;23.11;40.87;101215.97;5054826;28;45535;-62
2023/07/13 00:45:02;;;;;;;;;1.67;1.67;;;;;23.14;40.71;101215.03;5054247;28;45439;-59
2023/07/13 00:47:27;;;;;;;;;1.00;1.00;;;;;23.04;40.94;101197.03;5053920;28;45353;-60
2023/07/13 00:49:53;;;;;;;;;2.67;2.67;;;;;23.17;40.87;101225.88;5054490;28;45447;-58
2023/07/13 00:52:18;;;;;;;;;1.33;1.33;;;;;23.11;41.27;101231.44;5054101;28;45277;-60
2023/07/13 00:54:46;;;;;;;;;1.00;1.00;;;;;22.93;41.67;101216.28;5053982;28;45508;-59
2023/07/13 00:57:15;;;;;;;;;2.33;1.00;;;;;22.99;41.67;101224.34;5053115;28;45452;-58
2023/07/13 00:59:45;;;;;;;;;3.67;2.00;;;;;22.67;41.77;101176.78;5054292;28;45532;-59
2023/07/13 01:02:11;;;;;;;;;3.00;3.00;;;;;22.87;41.74;101228.19;5052826;28;45509;-58
2023/07/13 01:04:36;;;;;;;;;2.00;1.00;;;;;22.87;41.98;101230.91;5054722;28;45735;-59
2023/07/13 01:07:02;;;;;;;;;1.00;1.00;;;;;22.90;42.04;101232.66;5054007;28;45395;-58
2023/07/13 01:09:27;;;;;;;;;2.00;1.00;;;;;22.77;42.14;101207.50;5053408;28;45384;-60
2023/07/13 01:11:53;;;;;;;;;3.00;2.00;;;;;22.84;41.97;101214.63;5051323;28;45551;-60
2023/07/13 01:14:19;;;;;;;;;1.00;1.00;;;;;22.72;42.17;101210.28;5053247;28;45956;-59
2023/07/13 01:16:47;;;;;;;;;2.00;0.67;;;;;22.64;42.32;101206.78;5053812;28;45642;-58
2023/07/13 01:19:25;;;;;;;;;3.33;1.33;;;;;22.67;42.36;101233.97;5055759;28;45433;-71
2023/07/13 01:21:52;;;;;;;;;4.00;1.00;;;;;22.71;42.69;101245.72;5054728;28;45601;-60
2023/07/13 01:24:18;;;;;;;;;2.00;2.00;;;;;22.65;42.81;101238.53;5054296;28;45522;-68
2023/07/13 01:26:43;;;;;;;;;3.67;2.00;;;;;22.64;42.79;101250.38;5045643;28;51200;-61
2023/07/13 01:29:08;;;;;;;;;2.00;2.00;;;;;22.51;42.72;101210.63;5054347;28;45477;-59
2023/07/13 01:31:34;;;;;;;;;3.00;1.00;;;;;22.72;42.74;101234.78;5053727;28;45495;-59
2023/07/13 01:34:00;;;;;;;;;4.67;0.67;;;;;22.76;42.51;101241.97;5049441;28;45928;-59
2023/07/13 01:36:26;;;;;;;;;3.00;2.00;;;;;22.70;42.70;101242.06;5053843;28;45388;-58
2023/07/13 01:38:51;;;;;;;;;0.33;0.33;;;;;22.68;42.73;101243.94;5054569;28;45457;-58
2023/07/13 01:41:16;;;;;;;;;1.00;0.67;;;;;22.66;42.64;101247.63;5054054;28;45362;-59
2023/07/13 01:43:42;;;;;;;;;1.00;1.00;;;;;22.70;42.49;101252.97;5052804;28;45903;-59
2023/07/13 01:46:07;;;;;;;;;1.00;1.00;;;;;22.67;42.71;101252.13;5048390;28;45314;-59
2023/07/13 01:48:33;;;;;;;;;0.33;0.33;;;;;22.67;42.63;101252.13;5052491;28;45301;-59
2023/07/13 01:50:58;;;;;;;;;3.00;3.00;;;;;22.66;42.51;101247.63;5053815;28;45540;-58
2023/07/13 01:53:23;;;;;;;;;3.67;3.67;;;;;22.69;42.68;101248.47;5053008;28;46057;-58
2023/07/13 01:55:49;;;;;;;;;1.33;1.33;;;;;22.69;42.63;101244.84;5053096;28;45435;-58
2023/07/13 01:58:14;;;;;;;;;4.67;1.67;;;;;22.75;41.98;101261.06;5053507;28;45419;-58
2023/07/13 02:00:40;;;;;;;;;1.00;1.00;;;;;22.69;41.62;101250.28;5055791;28;45559;-59
2023/07/13 02:03:05;;;;;;;;;2.33;1.67;;;;;22.70;41.37;101258.41;5055591;28;46662;-59
2023/07/13 02:05:30;;;;;;;;;0.67;0.67;;;;;22.70;41.23;101258.41;5056443;28;45490;-60
2023/07/13 02:07:56;;;;;;;;;3.00;3.00;;;;;22.53;40.94;101227.84;5057544;28;45533;-58
2023/07/13 02:10:21;;;;;;;;;3.00;2.00;;;;;22.68;40.64;101262.09;5058136;28;45761;-59
2023/07/13 02:12:49;;;;;;;;;2.67;1.00;;;;;22.67;40.64;101253.03;5057313;28;45998;-59
2023/07/13 02:15:14;;;;;;;;;1.67;1.67;;;;;22.66;40.26;101247.63;5056166;28;45579;-60
2023/07/13 02:17:39;;;;;;;;;1.33;1.33;;;;;22.69;40.33;101253.03;5055652;28;45805;-58
2023/07/13 02:20:06;;;;;;;;;2.00;1.00;;;;;22.66;40.33;101244.91;5053136;28;45528;-64
2023/07/13 02:22:32;;;;;;;;;2.00;2.00;;;;;22.65;40.42;101246.69;5056290;28;45455;-60
2023/07/13 02:24:57;;;;;;;;;2.33;0.67;;;;;22.68;40.50;101251.22;5054978;28;45581;-59
2023/07/13 02:27:22;;;;;;;;;3.00;1.00;;;;;22.69;40.56;101261.19;5056571;28;45342;-60
2023/07/13 02:29:48;;;;;;;;;2.00;0.00;;;;;22.67;40.45;101249.41;5056414;28;45363;-58
2023/07/13 02:32:13;;;;;;;;;0.00;0.00;;;;;22.67;40.44;101247.59;5056143;28;46087;-63
2023/07/13 02:34:38;;;;;;;;;1.33;1.33;;;;;22.68;40.54;101243.94;5051721;28;45370;-59
2023/07/13 02:37:04;;;;;;;;;0.67;0.00;;;;;22.60;40.53;101232.25;5055958;28;45302;-62
2023/07/13 02:39:32;;;;;;;;;0.00;0.00;;;;;22.69;40.42;101242.13;5050236;28;45379;-64
2023/07/13 02:41:58;;;;;;;;;1.00;1.00;;;;;22.71;40.56;101226.66;5047392;28;47088;-61
2023/07/13 02:44:23;;;;;;;;;1.00;1.00;;;;;22.54;40.36;101203.31;5056691;28;45454;-60
2023/07/13 02:46:49;;;;;;;;;1.00;1.00;;;;;22.73;40.42;101244.75;5057297;28;45379;-58
2023/07/13 02:49:14;;;;;;;;;2.00;1.00;;;;;22.69;40.46;101234.84;5056273;28;45411;-59
2023/07/13 02:51:39;;;;;;;;;2.00;1.00;;;;;22.75;40.51;101247.44;5056389;28;45992;-60
2023/07/13 02:54:05;;;;;;;;;1.00;1.00;;;;;22.73;40.52;101255.66;5056274;28;45431;-60
2023/07/13 02:56:33;;;;;;;;;0.00;0.00;;;;;22.74;40.20;101253.84;5056825;28;45526;-59
2023/07/13 02:58:58;;;;;;;;;0.33;0.33;;;;;22.59;40.34;101247.69;5056409;28;45399;-59
2023/07/13 03:01:24;;;;;;;;;0.00;0.00;;;;;22.49;40.49;101256.03;5055762;28;45486;-59
2023/07/13 03:03:51;;;;;;;;;3.00;1.67;;;;;22.38;40.84;101254.38;5055887;28;45627;-61
2023/07/13 03:06:17;;;;;;;;;1.00;1.00;;;;;22.09;40.74;101214.81;5055619;28;45425;-60
2023/07/13 03:08:44;;;;;;;;;0.67;0.67;;;;;22.24;41.05;101259.97;5053678;28;45566;-62
2023/07/13 03:11:13;;;;;;;;;0.00;0.00;;;;;22.19;41.29;101269.13;5055079;28;45528;-60
2023/07/13 03:13:40;;;;;;;;;1.00;1.00;;;;;22.10;41.24;101259.25;5054632;28;45393;-65
2023/07/13 03:16:06;;;;;;;;;1.00;0.00;;;;;22.10;41.65;101267.44;5055322;28;45484;-59
2023/07/13 03:18:32;;;;;;;;;1.00;1.00;;;;;22.09;41.62;101271.06;5054708;28;45405;-60
2023/07/13 03:20:57;;;;;;;;;24.75;24.00;;;;;22.04;41.56;101257.53;5055498;28;45641;-57
2023/07/13 03:23:24;;;;;;;;;2.00;0.00;;;;;22.17;41.56;101269.13;5055084;28;45376;-61
2023/07/13 03:26:00;;;;;;;;;1.00;1.00;;;;;22.24;41.65;101267.22;5055807;28;45388;-60
2023/07/13 03:28:26;;;;;;;;;1.00;1.00;;;;;22.17;41.52;101265.53;5055550;28;45404;-60
2023/07/13 03:30:59;;;;;;;;;1.00;1.00;;;;;22.08;41.81;101252.94;5050418;28;45507;-59
2023/07/13 03:33:24;;;;;;;;;2.67;1.00;;;;;22.15;41.96;101267.38;5051182;28;45482;-62
2023/07/13 03:35:50;;;;;;;;;3.33;2.67;;;;;22.09;42.02;101269.25;5055025;28;50314;-59
2023/07/13 03:38:15;;;;;;;;;1.67;1.00;;;;;22.05;42.16;101283.81;5054698;28;45670;-63
2023/07/13 03:40:42;;;;;;;;;1.00;1.00;;;;;21.99;42.58;101283.91;5055024;28;45391;-59
2023/07/13 03:43:07;;;;;;;;;1.00;0.33;;;;;21.88;42.71;101284.03;5053702;28;45431;-61
2023/07/13 03:45:33;;;;;;;;;1.67;1.00;;;;;21.80;43.29;101282.31;5054452;28;55771;-60
2023/07/13 03:47:58;;;;;;;;;1.00;1.00;;;;;21.74;43.44;101279.66;5049740;28;45553;-59
2023/07/13 03:50:24;;;;;;;;;2.00;2.00;;;;;21.61;43.56;101282.50;5054845;28;46206;-61
2023/07/13 03:52:49;;;;;;;;;5.00;1.00;;;;;21.48;43.85;101279.03;5054768;28;45942;-59
2023/07/13 03:55:14;;;;;;;;;2.00;2.00;;;;;21.42;43.95;101281.78;5054593;28;45546;-58
2023/07/13 03:57:40;;;;;;;;;1.00;1.00;;;;;21.41;44.22;101287.22;5055208;28;45538;-59
2023/07/13 04:00:06;;;;;;;;;0.00;0.00;;;;;21.31;44.43;101272.81;5053944;28;46818;-59
2023/07/13 04:02:32;;;;;;;;;1.00;1.00;;;;;21.24;44.91;101279.25;5054717;28;45307;-60
2023/07/13 04:04:57;;;;;;;;;0.00;0.00;;;;;21.16;45.40;101288.34;5054970;28;45705;-58
2023/07/13 04:07:22;;;;;;;;;1.00;1.00;;;;;21.15;45.59;101299.22;5055143;28;45437;-59
2023/07/13 04:09:48;;;;;;;;;1.00;1.00;;;;;21.16;45.59;101290.16;5053935;28;45473;-59
2023/07/13 04:12:14;;;;;;;;;1.00;1.00;;;;;21.19;45.93;101302.84;5054586;28;45401;-59
2023/07/13 04:14:39;;;;;;;;;0.00;0.00;;;;;21.16;46.11;101304.66;5053820;28;45397;-59
2023/07/13 04:17:05;;;;;;;;;2.00;1.00;;;;;21.12;46.25;101307.44;5054708;28;45491;-58
2023/07/13 04:19:30;;;;;;;;;1.00;1.00;;;;;21.09;46.47;101304.72;5054212;28;45500;-59
2023/07/13 04:21:55;;;;;;;;;1.33;1.33;;;;;21.08;46.39;101303.81;5053879;28;45501;-68
2023/07/13 04:24:21;;;;;;;;;1.00;1.00;;;;;21.16;46.29;101306.47;5054592;28;45769;-60
2023/07/13 04:26:46;;;;;;;;;2.00;2.00;;;;;21.21;46.30;101299.19;5055026;28;45435;-60
2023/07/13 04:29:11;;;;;;;;;2.00;2.00;;;;;21.22;46.08;101300.06;5053528;28;49158;-61
2023/07/13 04:31:37;;;;;;;;;3.00;2.33;;;;;21.21;46.28;101303.72;5053791;28;45477;-60
2023/07/13 04:34:02;;;;;;;;;3.00;3.00;;;;;21.29;46.17;101320.84;5055802;28;45655;-60
2023/07/13 04:36:28;;;;;;;;;1.67;1.00;;;;;21.12;46.26;101285.69;5052720;28;45496;-59
2023/07/13 04:38:56;;;;;;;;;2.00;2.00;;;;;21.26;46.67;101326.31;5054869;28;46089;-60
2023/07/13 04:41:21;;;;;;;;;3.33;1.00;;;;;21.20;46.57;101326.38;5053009;28;45487;-59
2023/07/13 04:43:47;;;;;;;;;2.67;1.00;;;;;21.16;46.87;101311.91;5048167;28;45484;-60
2023/07/13 04:46:17;;;;;;;;;1.00;0.33;;;;;20.97;46.82;101290.31;5054140;28;45542;-65
2023/07/13 04:48:42;;;;;;;;;1.33;1.33;;;;;21.15;46.93;101319.16;5053800;28;46241;-64
2023/07/13 04:51:08;;;;;;;;;1.67;1.67;;;;;21.17;46.64;101325.47;5054104;28;45305;-61
2023/07/13 04:53:34;;;;;;;;;4.67;2.00;;;;;21.18;47.05;101323.66;5054469;28;45883;-63
2023/07/13 04:56:00;;;;;;;;;4.33;1.00;;;;;21.16;47.23;101320.06;5046923;28;45434;-58
2023/07/13 04:58:27;;;;;;;;;1.00;1.00;;;;;21.19;47.06;101319.16;5054125;28;46407;-60
2023/07/13 05:00:53;;;;;;;;;2.00;0.67;;;;;21.23;47.25;101324.50;5052885;28;45471;-59
2023/07/13 05:03:18;;;;;;;;;1.00;1.00;;;;;21.22;47.22;101329.97;5053362;28;45437;-60
2023/07/13 05:05:55;;;;;;;;;2.00;2.00;;;;;21.21;47.79;101325.47;5054097;28;45461;-59
2023/07/13 05:08:20;;;;;;;;;2.00;2.00;;;;;21.24;47.71;101326.31;5052724;28;46218;-60
2023/07/13 05:10:45;;;;;;;;;1.67;1.00;;;;;21.26;47.79;101329.94;5053402;28;45560;-60
2023/07/13 05:13:11;;;;;;;;;6.00;3.33;;;;;21.30;47.63;101309.97;5053985;28;45339;-60
2023/07/13 05:15:36;;;;;;;;;1.67;1.67;;;;;21.44;47.17;101300.78;5053095;28;45474;-60
2023/07/13 05:18:01;;;;;;;;;2.00;1.00;;;;;21.47;47.05;101288.09;5054278;28;45636;-59
2023/07/13 05:20:27;;;;;;;;;2.33;2.00;;;;;21.67;47.01;101311.47;5053436;28;45505;-59
2023/07/13 05:22:52;;;;;;;;;1.00;1.00;;;;;21.72;46.82;101310.47;5053137;28;45371;-59
2023/07/13 05:25:18;;;;;;;;;2.33;1.33;;;;;21.81;46.57;101323.09;5053949;28;45590;-63
2023/07/13 05:27:45;;;;;;;;;2.00;0.67;;;;;21.95;46.49;101322.03;5053237;28;45345;-59
2023/07/13 05:30:11;;;;;;;;;1.00;1.00;;;;;22.03;46.33;101326.47;5052425;28;45484;-60
2023/07/13 05:32:37;;;;;;;;;3.00;1.00;;;;;22.09;45.70;101333.63;5053862;28;45519;-58
2023/07/13 05:35:03;;;;;;;;;2.00;2.00;;;;;22.06;45.85;101330.97;5056705;28;45439;-60
2023/07/13 05:37:28;;;;;;;;;3.33;2.00;;;;;22.04;45.84;101333.72;5052625;28;47441;-61
2023/07/13 05:39:53;;;;;;;;;3.00;2.00;;;;;22.15;45.64;101344.47;5057343;28;45522;-58
2023/07/13 05:42:19;;;;;;;;;1.00;1.00;;;;;22.17;45.47;101339.91;5056924;28;45643;-59
2023/07/13 05:44:44;;;;;;;;;3.33;1.00;;;;;22.18;45.57;101349.88;5055569;28;45663;-60
2023/07/13 05:47:10;;;;;;;;;4.00;2.00;;;;;22.13;45.60;101349.03;5056483;28;45559;-60
2023/07/13 05:49:35;;;;;;;;;2.33;2.00;;;;;22.08;45.57;101342.75;5055914;28;45530;-63
2023/07/13 05:52:00;;;;;;;;;2.33;2.00;;;;;22.03;45.15;101350.97;5056961;28;45419;-61
2023/07/13 05:54:26;;;;;;;;;6.33;4.33;;;;;22.07;45.28;101346.38;5056875;28;45470;-59
2023/07/13 05:56:52;;;;;;;;;4.00;2.33;;;;;22.15;45.05;101347.19;5056838;28;46442;-59
2023/07/13 05:59:18;;;;;;;;;2.00;2.00;;;;;22.21;45.19;101352.56;5054645;28;45767;-59
2023/07/13 06:01:43;;;;;;;;;1.67;1.67;;;;;22.25;45.39;101361.59;5057012;28;45451;-59
2023/07/13 06:04:09;;;;;;;;;2.00;2.00;;;;;22.26;44.72;101356.13;5057075;28;45492;-59
2023/07/13 06:06:34;;;;;;;;;2.33;1.00;;;;;22.25;44.75;101354.31;5055934;28;46936;-60
2023/07/13 06:08:59;;;;;;;;;3.00;2.00;;;;;22.19;44.79;101357.13;5056643;28;45251;-61
2023/07/13 06:11:27;;;;;;;;;3.00;1.00;;;;;22.13;45.11;101357.19;5056617;28;45542;-60
2023/07/13 06:13:53;;;;;;;;;6.00;4.67;;;;;22.12;45.30;101358.09;5056725;28;45403;-59
2023/07/13 06:16:18;;;;;;;;;4.33;2.00;;;;;22.07;45.29;101369.03;5056059;28;46031;-59
2023/07/13 06:18:44;;;;;;;;;1.33;1.33;;;;;22.01;45.27;101371.84;5054257;28;45391;-59
2023/07/13 06:21:19;;;;;;;;;1.00;1.00;;;;;21.89;45.75;101367.44;5053934;28;45485;-61
2023/07/13 06:23:47;;;;;;;;;2.00;2.00;;;;;21.88;46.00;101376.50;5056429;28;45550;-61
2023/07/13 06:26:13;;;;;;;;;3.00;0.00;;;;;21.78;46.37;101368.44;5054983;28;47030;-62
2023/07/13 06:28:39;;;;;;;;;2.33;1.00;;;;;21.61;46.47;101346.88;5056001;28;45432;-60
2023/07/13 06:31:07;;;;;;;;;1.67;1.67;;;;;21.78;46.63;101376.59;5050458;28;45454;-60
2023/07/13 06:33:33;;;;;;;;;2.33;2.33;;;;;21.79;46.43;101382.03;5056531;28;45608;-59
2023/07/13 06:35:58;;;;;;;;;5.67;3.00;;;;;21.78;46.70;101371.16;5055982;28;46161;-61
2023/07/13 06:38:24;;;;;;;;;2.00;2.00;;;;;21.92;46.20;101382.81;5056435;28;45515;-62
2023/07/13 06:40:49;;;;;;;;;5.33;3.33;;;;;21.93;46.14;101356.50;5056524;28;45382;-61
2023/07/13 06:43:15;;;;;;;;;3.00;1.33;;;;;22.13;46.01;101380.81;5058165;28;45290;-60
2023/07/13 06:45:45;;;;;;;;;3.00;2.67;;;;;22.21;45.84;101381.63;5058558;28;46460;-59
2023/07/13 06:48:11;;;;;;;;;2.67;2.00;;;;;22.20;45.59;101386.13;5060506;28;45416;-61
2023/07/13 06:50:36;;;;;;;;;2.33;1.33;;;;;22.20;45.96;101377.06;5057878;28;45493;-68
2023/07/13 06:53:02;;;;;;;;;3.67;3.67;;;;;22.29;45.94;101385.19;5056978;28;45298;-67
2023/07/13 06:55:27;;;;;;;;;19.00;15.67;;;;;22.40;45.66;101390.47;5056308;28;46548;-75
2023/07/13 06:57:53;;;;;;;;;2.33;1.67;;;;;22.43;45.41;101385.00;5057281;28;44841;-61
2023/07/13 07:00:18;;;;;;;;;4.33;3.00;;;;;22.43;45.46;101374.09;5057173;28;45476;-60
2023/07/13 07:02:44;;;;;;;;;4.00;2.00;;;;;22.44;45.39;101373.19;5056107;28;45440;-61
2023/07/13 07:05:10;;;;;;;;;1.33;1.33;;;;;22.50;45.67;101399.44;5055516;28;45719;-61
2023/07/13 07:07:35;;;;;;;;;4.00;4.00;;;;;22.52;45.22;101394.84;5056147;28;45306;-59
2023/07/13 07:10:01;;;;;;;;;3.00;1.00;;;;;22.45;45.77;101394.97;5056613;28;45558;-59
2023/07/13 07:12:26;;;;;;;;;5.00;4.00;;;;;22.56;45.87;101399.38;5055464;28;45327;-64
2023/07/13 07:14:52;;;;;;;;;2.00;2.00;;;;;22.58;45.71;101401.13;5055535;28;46215;-59
2023/07/13 07:17:17;;;;;;;;;3.00;2.00;;;;;22.51;46.10;101387.63;5056269;28;54670;-59
2023/07/13 07:19:43;;;;;;;;;3.00;2.00;;;;;22.59;46.02;101404.78;5056281;28;45906;-61
2023/07/13 07:22:08;;;;;;;;;1.00;1.00;;;;;22.56;45.73;101392.09;5054048;28;45779;-61
2023/07/13 07:24:34;;;;;;;;;5.33;2.00;;;;;22.74;45.78;101406.38;5055466;28;50742;-61
2023/07/13 07:26:59;;;;;;;;;4.33;2.00;;;;;22.71;45.45;101388.25;5055106;28;45297;-65
2023/07/13 07:29:26;;;;;;;;;3.67;3.67;;;;;22.86;45.12;101405.31;5049952;28;45300;-59
2023/07/13 07:31:52;;;;;;;;;2.67;2.00;;;;;22.76;45.50;101399.09;5055523;28;45478;-59
2023/07/13 07:34:17;;;;;;;;;3.00;3.00;;;;;22.64;45.78;101398.34;5054602;28;45513;-61
2023/07/13 07:36:43;;;;;;;;;5.67;5.67;;;;;22.74;45.74;101396.38;5055512;28;45484;-59
2023/07/13 07:39:08;;;;;;;;;3.00;2.33;;;;;22.67;45.76;101371.97;5055375;28;45353;-61
2023/07/13 07:41:34;;;;;;;;;2.00;2.00;;;;;22.90;45.46;101407.06;5054401;28;45401;-59
2023/07/13 07:43:59;;;;;;;;;4.00;3.00;;;;;22.75;45.39;101400.94;5053933;28;46453;-62
2023/07/13 07:46:24;;;;;;;;;6.00;3.00;;;;;22.85;45.89;101417.13;5054641;28;46297;-60
2023/07/13 07:48:50;;;;;;;;;3.00;3.00;;;;;22.75;46.15;101400.94;5050825;28;45576;-61
2023/07/13 07:51:15;;;;;;;;;3.00;3.00;;;;;22.77;46.17;101385.44;5047567;28;45302;-60
2023/07/13 07:53:41;;;;;;;;;1.00;1.00;;;;;22.99;45.80;101426.00;5055007;28;45516;-60
2023/07/13 07:56:07;;;;;;;;;3.00;1.00;;;;;22.82;45.86;101394.47;5054853;28;45595;-62
2023/07/13 07:58:32;;;;;;;;;2.00;2.00;;;;;22.95;46.11;101424.25;5055569;28;45424;-61
2023/07/13 08:01:06;;;;;;;;;3.00;3.00;;;;;22.94;46.44;101417.91;5054291;28;45313;-62
2023/07/13 08:03:32;;;;;;;;;3.00;3.00;;;;;22.88;46.60;101409.81;5054151;28;45580;-61
2023/07/13 08:05:58;;;;;;;;;5.00;2.67;;;;;23.03;46.28;101426.88;5054326;28;45487;-61
2023/07/13 08:08:24;;;;;;;;;4.00;1.00;;;;;23.14;46.03;101434.00;5053912;28;45401;-60
2023/07/13 08:10:50;;;;;;;;;5.67;2.33;;;;;23.16;45.67;101437.63;5055365;28;45306;-61
2023/07/13 08:13:15;;;;;;;;;6.67;4.00;;;;;23.25;45.86;101431.13;5053249;28;48649;-61
2023/07/13 08:15:40;;;;;;;;;4.00;3.00;;;;;23.26;45.47;101430.16;5052132;28;45430;-62
2023/07/13 08:18:09;;;;;;;;;9.00;6.00;;;;;23.32;45.56;101435.53;5054451;28;45223;-61
2023/07/13 08:20:41;;;;;;;;;3.67;2.67;;;;;23.33;44.99;101431.91;5051164;28;45523;-60
2023/07/13 08:23:10;;;;;;;;;2.00;2.00;;;;;23.34;44.96;101433.69;5054845;28;45511;-67
2023/07/13 08:25:36;;;;;;;;;2.00;2.00;;;;;23.25;45.21;101431.13;5052900;28;45477;-63
2023/07/13 08:28:03;;;;;;;;;6.00;4.00;;;;;23.25;45.46;101439.28;5053493;28;45476;-64
2023/07/13 08:30:28;;;;;;;;;5.67;2.00;;;;;23.26;45.46;101435.63;5054901;28;45293;-60
2023/07/13 08:32:54;;;;;;;;;4.00;4.00;;;;;23.23;45.29;101416.63;5054633;28;45395;-59
2023/07/13 08:35:20;;;;;;;;;4.00;2.67;;;;;23.23;44.70;101415.69;5053295;28;45314;-60
2023/07/13 08:37:45;;;;;;;;;4.00;4.00;;;;;23.30;45.21;101423.75;5054395;28;45320;-60
2023/07/13 08:40:12;;;;;;;;;3.00;3.00;;;;;23.43;44.68;101429.00;5049880;28;45496;-59
2023/07/13 08:42:45;;;;;;;;;2.33;2.33;;;;;23.46;44.43;101410.78;5053913;28;45982;-59
2023/07/13 08:45:22;;;;;;;;;2.67;2.67;;;;;23.66;44.08;101425.91;5052146;28;45583;-61
2023/07/13 08:47:55;;;;;;;;;4.00;3.67;;;;;23.69;43.67;101425.84;5054422;28;45824;-61
2023/07/13 08:50:28;;;;;;;;;4.00;2.00;;;;;23.63;44.28;101425.97;5050074;28;45575;-65
2023/07/13 08:52:56;;;;;;;;;3.33;1.00;;;;;23.64;43.33;101425.94;5052638;28;46550;-59
2023/07/13 08:55:31;;;;;;;;;2.33;2.33;;;;;23.46;43.29;101413.53;5053318;28;45367;-59
2023/07/13 08:58:28;;;;;;;;;3.33;1.00;;;;;23.49;42.99;101427.06;5053216;28;45750;-67
2023/07/13 09:01:19;;;;;;;;;2.00;2.00;;;;;23.51;43.10;101429.78;5051021;28;45754;-60
2023/07/13 09:04:17;;;;;;;;;4.33;2.33;;;;;23.59;42.98;101437.84;5029196;28;47749;-59
2023/07/13 09:06:59;;;;;;;;;2.67;2.67;;;;;23.64;42.27;101425.94;5052881;28;45421;-60
2023/07/13 09:09:56;;;;;;;;;4.33;4.33;;;;;23.78;41.91;101413.91;5054088;28;45313;-61
2023/07/13 09:12:39;;;;;;;;;4.00;2.33;;;;;23.86;40.61;101423.78;5044908;28;45621;-62
2023/07/13 09:15:21;;;;;;;;;2.67;1.67;;;;;23.80;40.97;101415.66;5054263;28;48323;-62
2023/07/13 09:17:50;;;;;;;;;4.00;4.00;;;;;23.77;40.41;101414.81;5057190;28;45619;-60
2023/07/13 09:20:18;;;;;;;;;5.67;3.00;;;;;23.84;40.31;101417.44;5057610;28;45559;-61
2023/07/13 09:22:44;;;;;;;;;3.67;3.33;;;;;23.87;40.74;101411.94;5057402;28;45429;-60
2023/07/13 09:25:35;;;;;;;;;5.00;2.33;;;;;23.99;39.83;101429.91;5056486;28;46158;-60
2023/07/13 09:28:34;;;;;;;;;2.00;2.00;;;;;24.09;39.97;101412.41;5055123;28;45241;-61
2023/07/13 09:31:13;;;;;;;;;2.67;1.67;;;;;24.25;39.23;101414.84;5039330;28;45512;-60
2023/07/13 09:33:39;;;;;;;;;7.00;4.00;;;;;24.21;39.51;101413.13;5057608;28;45546;-62
2023/07/13 09:36:34;;;;;;;;;1.00;1.00;;;;;24.22;39.36;101414.91;5055788;28;47370;-60
2023/07/13 09:39:27;;;;;;;;;5.33;2.00;;;;;23.90;39.02;101390.03;5045199;28;45351;-63
2023/07/13 09:42:06;;;;;;;;;3.00;2.00;;;;;24.01;39.50;101416.22;5055216;28;45635;-63
2023/07/13 09:44:38;;;;;;;;;1.67;1.67;;;;;23.98;38.94;101432.66;5057042;28;45459;-70
2023/07/13 09:47:16;;;;;;;;;6.33;3.00;;;;;23.95;39.38;101436.34;5057923;28;45640;-62
2023/07/13 09:49:43;;;;;;;;;5.00;4.33;;;;;23.60;40.38;101409.66;5056820;28;45563;-62
2023/07/13 09:52:15;;;;;;;;;1.00;1.00;;;;;23.61;40.68;101445.09;5056949;28;45506;-61
2023/07/13 09:54:45;;;;;;;;;3.00;3.00;;;;;23.48;41.07;101427.13;5050879;28;45556;-64
2023/07/13 09:57:24;;;;;;;;;2.00;2.00;;;;;23.50;40.36;101441.63;5056486;28;46169;-61
2023/07/13 09:59:51;;;;;;;;;3.00;1.67;;;;;23.27;40.45;101420.19;5055448;28;45287;-63
2023/07/13 10:02:24;;;;;;;;;4.00;2.33;;;;;23.44;40.58;101441.72;5056775;28;45259;-64
2023/07/13 10:04:59;;;;;;;;;1.00;1.00;;;;;23.46;40.51;101448.97;5056979;28;45585;-60
2023/07/13 10:07:25;;;;;;;;;3.67;2.00;;;;;23.53;40.52;101441.59;5055218;28;47266;-61
2023/07/13 10:10:00;;;;;;;;;3.33;2.00;;;;;23.55;40.29;101437.91;5055256;28;45408;-70
2023/07/13 10:12:27;;;;;;;;;3.00;2.67;;;;;23.51;40.25;101432.50;5057063;28;45282;-61
2023/07/13 10:14:59;;;;;;;;;4.00;4.00;;;;;23.51;39.97;101416.16;5051923;28;45519;-63
2023/07/13 10:17:34;;;;;;;;;2.00;1.33;;;;;23.72;39.66;101459.44;5057500;28;45400;-68
2023/07/13 10:20:05;;;;;;;;;2.67;2.67;;;;;23.71;39.89;101459.47;5057564;28;45374;-63
2023/07/13 10:22:39;;;;;;;;;8.67;3.00;;;;;23.72;39.94;101462.16;5056193;28;45492;-67
2023/07/13 10:25:25;;;;;;;;;4.67;3.00;;;;;23.72;39.98;101447.63;5051400;28;45532;-63
2023/07/13 10:27:54;;;;;;;;;4.33;2.67;;;;;23.71;39.82;101443.13;5053901;28;47258;-62
2023/07/13 10:30:31;;;;;;;;;3.00;3.00;;;;;23.76;39.61;101451.19;5056315;28;45242;-65
2023/07/13 10:33:10;;;;;;;;;4.67;4.33;;;;;23.82;39.50;101467.47;5055764;28;45445;-70
2023/07/13 10:35:38;;;;;;;;;1.00;1.00;;;;;23.88;40.08;101467.41;5056121;28;45495;-62
2023/07/13 10:38:12;;;;;;;;;4.00;2.00;;;;;23.85;39.78;101471.06;5056506;28;46557;-61
2023/07/13 10:41:07;;;;;;;;;2.67;2.00;;;;;23.82;39.76;101473.84;5057270;28;45417;-67
2023/07/13 10:43:38;;;;;;;;;4.33;2.67;;;;;23.68;40.10;101456.81;5052406;28;45675;-64
2023/07/13 10:46:07;;;;;;;;;8.67;8.67;;;;;23.26;40.41;101367.47;5056661;28;45428;-63
2023/07/13 10:48:36;;;;;;;;;2.00;2.00;;;;;23.73;40.33;101457.63;5056247;28;46410;-63
2023/07/13 10:51:06;;;;;;;;;3.00;3.00;;;;;23.70;40.53;101457.66;5031201;28;45699;-61
2023/07/13 10:53:36;;;;;;;;;2.67;2.33;;;;;23.72;40.07;101475.81;5056075;28;45787;-69
2023/07/13 10:56:08;;;;;;;;;4.00;4.00;;;;;23.63;40.38;101464.16;5056320;28;45564;-63
2023/07/13 10:58:42;;;;;;;;;6.00;5.00;;;;;23.76;40.07;101473.94;5055303;28;46436;-64
2023/07/13 11:01:16;;;;;;;;;2.33;1.33;;;;;23.85;40.28;101482.00;5056013;28;45458;-63
2023/07/13 11:03:59;;;;;;;;;3.00;3.00;;;;;23.40;39.65;101371.81;5055895;28;45547;-69
2023/07/13 11:06:24;;;;;;;;;3.00;3.00;;;;;24.05;40.13;101475.28;5055472;28;45587;-61
2023/07/13 11:08:50;;;;;;;;;3.00;3.00;;;;;24.11;39.66;101475.19;5056105;28;45475;-65
2023/07/13 11:11:35;;;;;;;;;4.33;2.67;;;;;24.11;39.68;101475.19;5054480;28;45341;-61
2023/07/13 11:14:04;;;;;;;;;5.67;5.00;;;;;24.16;39.96;101477.84;5055337;28;45381;-61
2023/07/13 11:16:48;;;;;;;;;5.33;5.00;;;;;24.03;39.77;101450.75;5055477;28;45540;-62
2023/07/13 11:19:17;;;;;;;;;3.33;3.33;;;;;24.27;39.90;101471.25;5058175;28;48072;-62
2023/07/13 11:22:07;;;;;;;;;3.67;2.00;;;;;24.40;39.29;101463.72;5052074;28;45363;-60
2023/07/13 11:24:51;;;;;;;;;2.33;2.33;;;;;24.42;39.45;101467.31;5055495;28;45677;-67
2023/07/13 11:27:30;;;;;;;;;1.00;1.00;;;;;24.48;39.85;101460.81;5054755;28;45322;-67
2023/07/13 11:30:27;;;;;;;;;1.33;1.33;;;;;24.54;39.51;101457.06;5054305;28;47083;-63